Argentia, Newfoundland

9:47 AM NDT on September 02, 2014 (GMT -0230)
Long Pond | Change Station
CLOSE
Current Station
Airport
Location: Long Pond,
Elevation: 43 ft
Nearby Weather Stations

Elev 43 ft 47.52 °N, 52.98 °W | Updated 17 minutes ago

Partly Cloudy
Partly Cloudy
57 °F
Feels Like 57 °F
N
6
Wind Variable Wind from NNE

Today is forecast to be nearly the same temperature as yesterday.

Today
High -- | Low -- °F
--% Chance of Precip.
Yesterday
High -- | Low -- °F
Precip. -- in
6:26 AM 7:44 PM
Waxing Crescent, 51% visible
Pressure 30.13 in
Visibility 15.0 miles
Clouds Few 1000 ft
Few 20000 ft
Dew Point 52 °F
Humidity 82%
Rainfall 0.00 in
Snow Depth Not available.
UV 0 out of 12
Pollen Not available.
Air Quality Not available.
Flu Activity Not available.
METAR CWWU 021200Z 03005KT 15SM FEW010 FEW200 14/11 A3012 RMK SF1CI1 SLP201

More Conditions Fewer Conditions

Pressure 30.13 in
Visibility 15.0 miles
Clouds Few 1000 ft
Few 20000 ft
Dew Point 52 °F
Humidity 82%
Rainfall 0.00 in
Snow Depth Not available.
UV 0 out of 12
Pollen Not available.
Air Quality Not available.
Flu Activity Not available.
METAR CWWU 021200Z 03005KT 15SM FEW010 FEW200 14/11 A3012 RMK SF1CI1 SLP201

More Conditions Fewer Conditions

10-Day Weather Forecast

Almanac

Astronomy

Sep. 02, 2014 Rise Set
Actual Time 6:26 AM NDT 7:44 PM NDT
Civil Twilight 5:54 AM NDT 8:15 PM NDT
Nautical Twilight 5:16 AM NDT 8:53 PM NDT
Astronomical Twilight 4:35 AM NDT 9:34 PM NDT
Moon 2:33 PM NDT No Moon Set
Length of Visible Light 14h 21m
Length of Day
13h 18m
Tomorrow will be 3m 17s shorter.
Waxing Crescent, 51% of the Moon is Illuminated
Today
Waxing Crescent
Sep 8
Full
Sep 15
Last Quarter
Sep 24
New
Oct 1
First Quarter

Yesterday's Extremes

Country Highs Country Lows

Community

WunderPhotos

Upload Photos

1,749,638 photos uploaded!

WunderBlogs® & News

By Dr. Jeff Masters
Director of Meteorology, Weather Underground
By Kari Strenfel
Meteorologist, Weather Underground
By Christopher C. Burt
Weather Historian, Weather Underground
September 2, 2014
September 2, 2014
September 2, 2014

Nearby

Snow Depth

Not available.

Earthquake Activity

City Distance Mag. Time & Date
No recent earthquake activity has been reported nearby.
Minimum magnitude displayed is 2.5.

Coastal Water Temperatures

Place Temperature
No Stations Reporting

Nearby Weather Stations